Estación Meteorológica Peña el Pijo (Robertgarden) [ 02/03/23 03:37:30 CET ]

Fecha Hora Presion(HPa) Temp (°C) Humedad % Rocio (°C) Viento ( m/s) Direccion Lluvia 1Hora(mm) Lluvia 24H(mm) LLuvia Total(mm)
2010-Apr-06 01:01:14 1012.000 7.6 35 -7.0 2.4 NNW     105.67
2010-Apr-06 02:01:11 1011.800 7.2 37 -6.6         105.67
2010-Apr-06 03:06:15 1011.700 6.4 40 -6.2         105.67
2010-Apr-06 04:01:16 1011.500 6.2 40 -6.4         105.67
2010-Apr-06 05:01:14 1010.900 6.0 39 -7.0         105.67
2010-Apr-06 06:01:18 1010.700 4.8 47 -5.7         105.67
2010-Apr-06 07:01:12 1010.900 3.3 53 -5.4         105.67
2010-Apr-06 08:01:11 1011.300 1.5 60 -5.4         105.67
2010-Apr-06 09:01:17 1011.400 2.9 62 -3.7         105.67
2010-Apr-06 10:01:14 1011.000 5.6 56 -2.5         105.67
2010-Apr-06 11:01:15 1010.500 10.3 45 -1.2         105.67
2010-Apr-06 12:01:18 1010.400 14.5 42 1.7         105.67
2010-Apr-06 13:01:13 1009.300 18.1 39 3.9         105.67
2010-Apr-06 14:01:14 1008.600 19.3 37 4.2 2.9 N     105.67
2010-Apr-06 15:01:11 1008.200 20.6 37 5.3         105.67
2010-Apr-06 16:01:14 1007.400 20.5 37 5.2 1.6 NNE     105.67
2010-Apr-06 17:01:11 1006.900 20.8 38 5.9         105.67
2010-Apr-06 18:01:19 1007.000 20.3 40 6.3         105.67
2010-Apr-06 19:01:13 1007.000 19.1 44 6.5         105.67
2010-Apr-06 20:01:13 1007.700 15.9 52 6.0         105.67
2010-Apr-06 21:01:15 1007.900 13.1 61 5.7         105.67
2010-Apr-06 22:01:19 1008.800 10.9 68 5.2         105.67
2010-Apr-06 23:01:14 1008.900 9.6 73 5.0         105.67

Temperatura Máxima:20°    Temperatura Mínima:
Presión Máxima:1012.000 Hpa    Presión Mínima:1006.900 Hpa


Volver